createdAt,value
2022-09-30T00:01:27.977Z,3.28
2022-09-30T00:06:30.205Z,2.95
2022-09-30T00:11:33.905Z,3.65
2022-09-30T00:16:36.255Z,3.10
2022-09-30T00:21:37.709Z,3.60
2022-09-30T00:26:39.224Z,3.35
2022-09-30T00:31:41.323Z,2.80
2022-09-30T00:36:47.050Z,3.17
2022-09-30T00:41:51.270Z,3.30
2022-09-30T00:46:53.078Z,3.42
2022-09-30T00:51:56.150Z,3.13
2022-09-30T00:56:59.045Z,3.33
2022-09-30T01:02:01.227Z,3.10
2022-09-30T01:07:04.517Z,3.20
2022-09-30T01:12:07.240Z,3.25
2022-09-30T01:17:25.448Z,3.38
2022-09-30T01:22:45.350Z,3.92
2022-09-30T01:27:55.980Z,3.03
2022-09-30T01:33:03.993Z,3.33
2022-09-30T01:38:24.193Z,3.35
2022-09-30T01:48:45.737Z,3.25
2022-09-30T01:58:57.588Z,3.88
2022-09-30T02:04:02.489Z,3.70
2022-09-30T02:09:24.164Z,3.53
2022-09-30T02:14:28.743Z,3.78
2022-09-30T02:19:43.885Z,3.67
2022-09-30T02:24:47.030Z,3.88
2022-09-30T02:29:51.391Z,3.70
2022-09-30T02:34:56.385Z,3.67
2022-09-30T02:40:03.688Z,3.35
2022-09-30T02:45:08.574Z,3.60
2022-09-30T02:50:33.266Z,3.67
2022-09-30T02:55:37.500Z,3.78
2022-09-30T03:00:39.054Z,3.50
2022-09-30T03:05:40.553Z,4.20
2022-09-30T03:10:42.411Z,3.40
2022-09-30T03:16:14.497Z,3.30
2022-09-30T03:21:34.254Z,3.78
2022-09-30T03:26:54.197Z,4.05
2022-09-30T03:32:04.678Z,3.75
2022-09-30T03:37:32.043Z,3.65
2022-09-30T03:42:38.133Z,3.42
2022-09-30T03:47:47.624Z,3.50
2022-09-30T03:52:49.816Z,3.85
2022-09-30T03:57:54.391Z,3.70
2022-09-30T04:02:57.861Z,3.70
2022-09-30T04:07:59.437Z,3.60
2022-09-30T04:13:00.991Z,3.70
2022-09-30T04:18:04.628Z,3.42
2022-09-30T04:23:06.012Z,3.75
2022-09-30T04:28:07.970Z,3.50
2022-09-30T04:33:09.411Z,3.42
2022-09-30T04:38:10.865Z,4.03
2022-09-30T04:43:12.288Z,3.95
2022-09-30T04:48:14.126Z,3.60
2022-09-30T04:53:16.129Z,3.28
2022-09-30T04:58:17.722Z,3.50
2022-09-30T05:03:19.997Z,3.97
2022-09-30T05:08:22.856Z,4.05
2022-09-30T05:13:25.406Z,3.90
2022-09-30T05:18:26.748Z,4.25
2022-09-30T05:23:30.366Z,4.13
2022-09-30T05:28:32.714Z,4.43
2022-09-30T05:33:35.909Z,4.68
2022-09-30T05:38:55.301Z,4.38
2022-09-30T05:44:19.301Z,4.57
2022-09-30T05:49:20.856Z,5.40
2022-09-30T05:54:22.451Z,4.82
2022-09-30T05:59:23.950Z,5.00
2022-09-30T06:04:25.352Z,5.18
2022-09-30T06:09:26.831Z,5.03
2022-09-30T06:14:28.807Z,4.82
2022-09-30T06:19:31.843Z,5.13
2022-09-30T06:24:33.303Z,5.07
2022-09-30T06:29:34.754Z,5.30
2022-09-30T06:34:36.098Z,4.60
2022-09-30T06:39:37.747Z,4.85
2022-09-30T06:44:51.200Z,4.90
2022-09-30T06:49:58.652Z,5.60
2022-09-30T06:55:00.265Z,4.95
2022-09-30T07:00:02.038Z,5.28
2022-09-30T07:05:03.958Z,5.25
2022-09-30T07:10:13.156Z,5.20
2022-09-30T07:15:14.658Z,4.63
2022-09-30T07:20:16.155Z,5.00
2022-09-30T07:25:18.082Z,5.03
2022-09-30T07:30:26.786Z,5.40
2022-09-30T07:35:28.633Z,5.00
2022-09-30T07:40:31.378Z,5.70
2022-09-30T07:45:32.853Z,5.57
2022-09-30T07:50:34.585Z,5.90
2022-09-30T07:55:35.958Z,6.10
2022-09-30T08:00:42.492Z,5.72
2022-09-30T08:05:45.276Z,5.68
2022-09-30T08:10:46.645Z,6.00
2022-09-30T08:15:48.811Z,5.75
2022-09-30T08:20:50.207Z,6.70
2022-09-30T08:25:51.647Z,7.05
2022-09-30T08:30:53.006Z,6.03
2022-09-30T08:35:54.470Z,6.15
2022-09-30T08:41:18.778Z,6.03
2022-09-30T08:46:35.644Z,5.68
2022-09-30T08:51:39.247Z,5.30
2022-09-30T08:56:40.662Z,4.63
2022-09-30T09:01:44.378Z,4.53
2022-09-30T09:06:52.682Z,3.92
2022-09-30T09:12:02.792Z,4.05
2022-09-30T09:17:15.954Z,3.38
2022-09-30T09:22:21.236Z,2.97
2022-09-30T09:27:34.452Z,2.38
2022-09-30T09:32:36.248Z,1.90
2022-09-30T09:38:01.127Z,1.40
2022-09-30T09:43:10.186Z,1.70
2022-09-30T09:48:13.658Z,2.10
2022-09-30T09:53:18.116Z,2.42
2022-09-30T09:58:21.697Z,2.50
2022-09-30T10:03:26.339Z,2.55
2022-09-30T10:08:29.113Z,2.50
2022-09-30T10:13:32.824Z,2.72
2022-09-30T10:18:35.748Z,2.38
2022-09-30T10:23:41.084Z,3.20
2022-09-30T10:28:45.823Z,3.17
2022-09-30T10:33:48.495Z,3.50
2022-09-30T10:38:55.709Z,3.40
2022-09-30T10:43:59.056Z,2.50
2022-09-30T10:49:00.815Z,3.85
2022-09-30T10:54:03.429Z,3.70
2022-09-30T10:59:06.857Z,4.00
2022-09-30T11:04:08.387Z,4.13
2022-09-30T11:09:30.006Z,4.55
2022-09-30T11:14:35.106Z,4.97
2022-09-30T11:19:39.847Z,5.40
2022-09-30T11:24:45.661Z,5.90
2022-09-30T11:29:53.125Z,6.32
2022-09-30T11:35:01.554Z,7.20
2022-09-30T11:40:18.364Z,6.53
2022-09-30T11:45:26.032Z,6.60
2022-09-30T11:50:42.761Z,6.75
2022-09-30T11:55:50.405Z,5.00
2022-09-30T12:00:56.378Z,3.50
2022-09-30T12:05:59.738Z,2.72
2022-09-30T12:11:07.742Z,2.05
2022-09-30T12:16:12.111Z,2.20
2022-09-30T12:21:20.634Z,2.30
2022-09-30T12:26:22.065Z,1.63
2022-09-30T12:31:27.007Z,1.48
2022-09-30T12:36:51.259Z,1.50
2022-09-30T12:41:58.829Z,1.50
2022-09-30T12:47:18.799Z,1.40
2022-09-30T12:52:21.492Z,1.30
2022-09-30T12:57:34.040Z,1.38
2022-09-30T13:02:38.053Z,1.17
2022-09-30T13:07:59.334Z,1.35
2022-09-30T13:13:12.966Z,1.25
2022-09-30T13:18:20.566Z,1.30
2022-09-30T13:23:37.581Z,1.38
2022-09-30T13:28:39.075Z,1.48
2022-09-30T13:33:42.862Z,1.45
2022-09-30T13:38:44.272Z,1.40
2022-09-30T13:43:58.275Z,1.50
2022-09-30T13:49:21.735Z,1.40
2022-09-30T13:54:23.581Z,1.45
2022-09-30T13:59:32.757Z,1.50
2022-09-30T14:04:47.448Z,2.00
2022-09-30T14:10:08.388Z,1.83
2022-09-30T14:15:17.344Z,2.33
2022-09-30T14:20:27.684Z,2.33
2022-09-30T14:25:34.055Z,2.63
2022-09-30T14:30:42.306Z,2.97
2022-09-30T14:35:43.930Z,2.45
2022-09-30T14:40:50.615Z,2.20
2022-09-30T14:45:55.187Z,1.98
2022-09-30T14:51:00.321Z,2.60
2022-09-30T14:56:03.041Z,2.53
2022-09-30T15:01:17.759Z,2.72
2022-09-30T15:06:23.396Z,2.40
2022-09-30T15:11:28.563Z,2.20
2022-09-30T15:16:31.305Z,2.35
2022-09-30T15:21:33.055Z,2.50
2022-09-30T15:26:35.101Z,2.40
2022-09-30T15:31:41.564Z,1.98
2022-09-30T15:36:43.727Z,1.83
2022-09-30T15:41:46.510Z,1.80
2022-09-30T15:47:08.424Z,1.70
2022-09-30T15:52:28.219Z,1.80
2022-09-30T15:57:45.223Z,1.63
2022-09-30T16:02:46.637Z,1.90
2022-09-30T16:07:48.071Z,2.15
2022-09-30T16:12:49.630Z,1.90
2022-09-30T16:17:51.066Z,2.90
2022-09-30T16:22:53.549Z,2.83
2022-09-30T16:28:02.057Z,2.47
2022-09-30T16:33:04.767Z,3.15
2022-09-30T16:38:06.829Z,4.20
2022-09-30T16:43:11.605Z,3.70
2022-09-30T16:48:16.879Z,3.78
2022-09-30T16:53:18.316Z,5.00
2022-09-30T16:58:19.916Z,5.28
2022-09-30T17:03:22.137Z,5.30
2022-09-30T17:08:26.559Z,4.80
2022-09-30T17:13:28.649Z,5.75
2022-09-30T17:18:30.025Z,5.50
2022-09-30T17:23:31.358Z,5.22
2022-09-30T17:28:34.674Z,5.57
2022-09-30T17:33:37.710Z,6.63
2022-09-30T17:38:39.342Z,6.28
2022-09-30T17:43:40.715Z,7.40
2022-09-30T17:48:43.485Z,6.65
2022-09-30T17:53:45.159Z,6.97
2022-09-30T17:58:47.703Z,5.05
2022-09-30T18:03:52.982Z,4.32
2022-09-30T18:08:54.495Z,4.43
2022-09-30T18:13:57.928Z,5.78
2022-09-30T18:19:00.634Z,4.47
2022-09-30T18:24:02.216Z,4.35
2022-09-30T18:29:04.117Z,4.50
2022-09-30T18:34:05.511Z,5.00
2022-09-30T18:39:06.982Z,5.03
2022-09-30T18:44:09.087Z,5.28
2022-09-30T18:49:10.647Z,4.70
2022-09-30T18:54:15.267Z,4.60
2022-09-30T18:59:19.264Z,4.65
2022-09-30T19:04:23.378Z,4.90
2022-09-30T19:09:26.714Z,4.25
2022-09-30T19:14:30.684Z,3.50
2022-09-30T19:19:35.087Z,4.13
2022-09-30T19:24:37.892Z,3.70
2022-09-30T19:29:40.469Z,3.58
2022-09-30T19:34:42.822Z,3.80
2022-09-30T19:39:46.334Z,3.22
2022-09-30T19:44:47.783Z,3.55
2022-09-30T19:49:49.156Z,3.50
2022-09-30T19:54:51.836Z,3.50
2022-09-30T19:59:53.492Z,3.05
2022-09-30T20:04:55.178Z,3.92
2022-09-30T20:09:56.799Z,4.20
2022-09-30T20:15:16.916Z,3.63
2022-09-30T20:20:37.228Z,3.50
2022-09-30T20:25:38.779Z,3.38
2022-09-30T20:30:47.739Z,3.72
2022-09-30T20:35:49.237Z,3.60
2022-09-30T20:40:54.523Z,3.20
2022-09-30T20:46:00.276Z,3.05
2022-09-30T20:51:06.067Z,3.40
2022-09-30T20:56:08.312Z,3.83
2022-09-30T21:01:11.460Z,3.38
2022-09-30T21:06:12.886Z,3.28
2022-09-30T21:11:14.672Z,3.58
2022-09-30T21:16:17.383Z,3.40
2022-09-30T21:21:19.616Z,3.40
2022-09-30T21:26:21.002Z,3.45
2022-09-30T21:31:27.278Z,3.60
2022-09-30T21:36:28.989Z,3.95
2022-09-30T21:41:31.239Z,3.20
2022-09-30T21:46:33.283Z,3.92
2022-09-30T21:51:36.111Z,3.70
2022-09-30T21:56:38.174Z,3.80
2022-09-30T22:01:40.038Z,3.90
2022-09-30T22:06:41.453Z,3.72
2022-09-30T22:11:43.839Z,4.38
2022-09-30T22:16:45.814Z,4.07
2022-09-30T22:21:47.435Z,4.68
2022-09-30T22:26:49.192Z,4.00
2022-09-30T22:31:50.555Z,3.60
2022-09-30T22:37:10.429Z,3.70
2022-09-30T22:42:11.777Z,4.18
2022-09-30T22:47:13.323Z,4.00
2022-09-30T22:52:14.817Z,4.05
2022-09-30T22:57:16.255Z,3.88
2022-09-30T23:02:21.172Z,3.67
2022-09-30T23:07:22.588Z,4.30
2022-09-30T23:12:24.808Z,3.55
2022-09-30T23:17:28.070Z,3.70
2022-09-30T23:22:29.441Z,3.30
2022-09-30T23:27:30.801Z,3.70
2022-09-30T23:32:32.092Z,4.18
2022-09-30T23:37:33.416Z,4.05
2022-09-30T23:42:35.756Z,4.00
2022-09-30T23:47:37.397Z,4.30
2022-09-30T23:52:38.734Z,4.43
2022-09-30T23:57:40.140Z,3.80
